createdAt,value
2022-08-19T00:00:21.729Z,22.27
2022-08-19T00:02:50.150Z,22.27
2022-08-19T00:05:18.531Z,22.27
2022-08-19T00:07:46.588Z,22.27
2022-08-19T00:10:15.158Z,22.26
2022-08-19T00:12:46.839Z,22.26
2022-08-19T00:15:16.414Z,22.25
2022-08-19T00:17:45.000Z,22.24
2022-08-19T00:20:13.979Z,22.24
2022-08-19T00:22:42.334Z,22.24
2022-08-19T00:25:10.241Z,22.24
2022-08-19T00:27:37.884Z,22.24
2022-08-19T00:30:08.522Z,22.24
2022-08-19T00:32:36.245Z,22.23
2022-08-19T00:35:03.913Z,22.22
2022-08-19T00:37:31.489Z,22.22
2022-08-19T00:39:59.169Z,22.22
2022-08-19T00:42:29.340Z,22.22
2022-08-19T00:44:57.017Z,22.21
2022-08-19T00:47:25.994Z,22.21
2022-08-19T00:49:55.621Z,22.22
2022-08-19T00:52:25.048Z,22.22
2022-08-19T00:54:53.464Z,22.22
2022-08-19T00:57:23.098Z,22.22
2022-08-19T00:59:56.526Z,22.22
2022-08-19T01:02:32.779Z,22.23
2022-08-19T01:05:01.119Z,22.21
2022-08-19T01:07:28.725Z,22.21
2022-08-19T01:10:03.437Z,22.20
2022-08-19T01:12:31.130Z,22.20
2022-08-19T01:14:58.757Z,22.20
2022-08-19T01:17:26.785Z,22.20
2022-08-19T01:19:55.729Z,22.19
2022-08-19T01:22:33.513Z,22.18
2022-08-19T01:25:01.716Z,22.18
2022-08-19T01:27:35.286Z,22.17
2022-08-19T01:30:12.337Z,22.17
2022-08-19T01:32:39.956Z,22.17
2022-08-19T01:35:08.233Z,22.18
2022-08-19T01:37:46.089Z,22.19
2022-08-19T01:40:13.760Z,22.19
2022-08-19T01:42:42.189Z,22.18
2022-08-19T01:45:10.503Z,22.18
2022-08-19T01:47:38.417Z,22.17
2022-08-19T01:50:07.239Z,22.18
2022-08-19T01:52:37.564Z,22.18
2022-08-19T01:55:09.024Z,22.17
2022-08-19T01:57:36.748Z,22.17
2022-08-19T02:00:07.140Z,22.16
2022-08-19T02:02:34.967Z,22.15
2022-08-19T02:05:02.621Z,22.16
2022-08-19T02:07:30.240Z,22.15
2022-08-19T02:09:58.523Z,22.16
2022-08-19T02:12:27.508Z,22.16
2022-08-19T02:14:55.112Z,22.16
2022-08-19T02:17:22.715Z,22.16
2022-08-19T02:19:50.368Z,22.15
2022-08-19T02:22:18.031Z,22.15
2022-08-19T02:24:45.650Z,22.15
2022-08-19T02:27:13.282Z,22.15
2022-08-19T02:29:42.245Z,22.13
2022-08-19T02:32:09.854Z,22.13
2022-08-19T02:34:37.469Z,22.13
2022-08-19T02:37:05.116Z,22.13
2022-08-19T02:39:31.781Z,22.14
2022-08-19T02:42:00.616Z,22.13
2022-08-19T02:44:31.787Z,22.12
2022-08-19T02:47:01.100Z,22.12
2022-08-19T02:49:28.748Z,22.12
2022-08-19T02:51:56.357Z,22.11
2022-08-19T02:54:23.974Z,22.12
2022-08-19T02:56:51.658Z,22.12
2022-08-19T02:59:23.028Z,22.12
2022-08-19T03:01:50.760Z,22.11
2022-08-19T03:04:21.212Z,22.11
2022-08-19T03:06:49.070Z,22.10
2022-08-19T03:09:16.736Z,22.11
2022-08-19T03:11:44.347Z,22.11
2022-08-19T03:14:12.161Z,22.12
2022-08-19T03:16:44.189Z,22.11
2022-08-19T03:19:11.840Z,22.10
2022-08-19T03:21:40.816Z,22.10
2022-08-19T03:24:09.878Z,22.10
2022-08-19T03:26:40.526Z,22.10
2022-08-19T03:29:10.333Z,22.09
2022-08-19T03:31:43.632Z,22.10
2022-08-19T03:34:21.393Z,22.08
2022-08-19T03:36:50.532Z,22.09
2022-08-19T03:39:18.365Z,22.08
2022-08-19T03:41:48.437Z,22.09
2022-08-19T03:44:18.520Z,22.08
2022-08-19T03:46:46.811Z,22.07
2022-08-19T03:49:14.714Z,22.07
2022-08-19T03:51:42.853Z,22.06
2022-08-19T03:54:12.764Z,22.07
2022-08-19T03:56:40.942Z,22.06
2022-08-19T03:59:09.721Z,22.08
2022-08-19T04:01:37.462Z,22.08
2022-08-19T04:04:05.509Z,22.09
2022-08-19T04:06:34.930Z,22.10
2022-08-19T04:09:03.909Z,22.10
2022-08-19T04:11:43.426Z,22.09
2022-08-19T04:14:12.512Z,22.07
2022-08-19T04:16:40.133Z,22.08
2022-08-19T04:19:08.288Z,22.09
2022-08-19T04:21:36.005Z,22.07
2022-08-19T04:24:04.165Z,22.07
2022-08-19T04:26:34.269Z,22.07
2022-08-19T04:29:02.114Z,22.07
2022-08-19T04:31:31.682Z,22.07
2022-08-19T04:34:01.273Z,22.06
2022-08-19T04:36:29.905Z,22.07
2022-08-19T04:39:17.000Z,22.06
2022-08-19T04:42:03.725Z,22.06
2022-08-19T04:44:33.327Z,22.06
2022-08-19T04:47:11.037Z,22.06
2022-08-19T04:49:39.094Z,22.05
2022-08-19T04:52:06.933Z,22.06
2022-08-19T04:54:38.162Z,22.06
2022-08-19T04:57:09.508Z,22.07
2022-08-19T04:59:37.374Z,22.05
2022-08-19T05:02:05.335Z,22.06
2022-08-19T05:04:33.670Z,22.05
2022-08-19T05:07:01.633Z,22.05
2022-08-19T05:09:33.100Z,22.07
2022-08-19T05:12:18.846Z,22.09
2022-08-19T05:14:48.173Z,22.12
2022-08-19T05:17:36.245Z,22.12
2022-08-19T05:20:22.025Z,22.15
2022-08-19T05:22:49.630Z,22.12
2022-08-19T05:25:19.849Z,22.09
2022-08-19T05:27:49.141Z,22.07
2022-08-19T05:30:16.820Z,22.04
2022-08-19T05:32:44.805Z,22.01
2022-08-19T05:35:12.646Z,21.99
2022-08-19T05:37:41.096Z,21.98
2022-08-19T05:40:10.107Z,21.97
2022-08-19T05:42:37.972Z,21.93
2022-08-19T05:45:08.042Z,21.93
2022-08-19T05:47:36.501Z,21.93
2022-08-19T05:50:10.383Z,21.90
2022-08-19T05:52:39.033Z,21.89
2022-08-19T05:55:11.369Z,21.87
2022-08-19T05:57:39.002Z,21.85
2022-08-19T06:00:11.244Z,21.84
2022-08-19T06:02:38.955Z,21.85
2022-08-19T06:05:09.903Z,21.84
2022-08-19T06:07:37.622Z,21.82
2022-08-19T06:10:05.734Z,21.81
2022-08-19T06:12:35.489Z,21.80
2022-08-19T06:15:04.388Z,21.78
2022-08-19T06:17:35.586Z,21.76
2022-08-19T06:20:03.632Z,21.78
2022-08-19T06:22:31.433Z,21.77
2022-08-19T06:24:59.052Z,21.76
2022-08-19T06:27:26.732Z,21.75
2022-08-19T06:29:54.997Z,21.75
2022-08-19T06:32:22.588Z,21.75
2022-08-19T06:34:51.595Z,21.75
2022-08-19T06:37:19.203Z,21.72
2022-08-19T06:39:46.906Z,21.71
2022-08-19T06:42:17.031Z,21.71
2022-08-19T06:44:48.820Z,21.72
2022-08-19T06:47:23.657Z,21.71
2022-08-19T06:49:57.007Z,21.71
2022-08-19T06:52:30.550Z,21.69
2022-08-19T06:54:59.590Z,21.71
2022-08-19T06:57:28.117Z,21.72
2022-08-19T06:59:57.446Z,21.73
2022-08-19T07:02:27.170Z,21.73
2022-08-19T07:04:58.345Z,21.73
2022-08-19T07:07:28.213Z,21.72
2022-08-19T07:10:00.861Z,21.72
2022-08-19T07:12:30.527Z,21.70
2022-08-19T07:14:59.295Z,21.70
2022-08-19T07:17:26.957Z,21.69
2022-08-19T07:19:56.194Z,21.68
2022-08-19T07:22:24.683Z,21.68
2022-08-19T07:24:52.397Z,21.67
2022-08-19T07:27:24.538Z,21.68
2022-08-19T07:29:56.148Z,21.67
2022-08-19T07:32:26.835Z,21.67
2022-08-19T07:34:56.644Z,21.67
2022-08-19T07:37:27.328Z,21.67
2022-08-19T07:39:57.126Z,21.66
2022-08-19T07:42:24.803Z,21.67
2022-08-19T07:44:52.407Z,21.68
2022-08-19T07:47:49.270Z,21.67
2022-08-19T07:50:10.786Z,21.66
2022-08-19T07:52:40.239Z,21.67
2022-08-19T07:55:41.626Z,21.68
2022-08-19T07:57:59.640Z,21.68
2022-08-19T08:00:27.436Z,21.68
2022-08-19T08:02:55.261Z,21.69
2022-08-19T08:05:43.866Z,21.67
2022-08-19T08:08:44.171Z,21.70
2022-08-19T08:11:16.079Z,21.67
2022-08-19T08:13:45.440Z,21.68
2022-08-19T08:16:14.059Z,21.66
2022-08-19T08:18:50.524Z,21.65
2022-08-19T08:21:22.193Z,21.67
2022-08-19T08:23:52.084Z,21.68
2022-08-19T08:26:21.009Z,21.68
2022-08-19T08:28:49.606Z,21.70
2022-08-19T08:31:17.488Z,21.68
2022-08-19T08:33:45.165Z,21.68
2022-08-19T08:36:14.562Z,21.67
2022-08-19T08:38:44.724Z,21.66
2022-08-19T08:41:24.743Z,21.66
2022-08-19T08:43:53.849Z,21.64
2022-08-19T08:46:30.745Z,21.64
2022-08-19T08:49:01.941Z,21.63
2022-08-19T08:51:34.991Z,21.63
2022-08-19T08:54:04.862Z,21.64
2022-08-19T08:56:32.979Z,21.64
2022-08-19T08:59:02.345Z,21.63
2022-08-19T09:01:30.424Z,21.62
2022-08-19T09:04:02.743Z,21.62
2022-08-19T09:06:33.777Z,21.62
2022-08-19T09:09:12.301Z,21.65
2022-08-19T09:11:48.600Z,21.65
2022-08-19T09:14:48.889Z,21.63
2022-08-19T09:17:10.002Z,21.63
2022-08-19T09:19:38.057Z,21.63
2022-08-19T09:22:08.604Z,21.65
2022-08-19T09:24:40.744Z,21.67
2022-08-19T09:27:18.782Z,21.67
2022-08-19T09:29:48.769Z,21.68
2022-08-19T09:32:26.820Z,21.67
2022-08-19T09:34:55.583Z,21.65
2022-08-19T09:37:23.825Z,21.64
2022-08-19T09:39:54.288Z,21.64
2022-08-19T09:42:30.268Z,21.64
2022-08-19T09:45:04.912Z,21.64
2022-08-19T09:47:33.422Z,21.66
2022-08-19T09:50:01.021Z,21.63
2022-08-19T09:52:32.725Z,21.64
2022-08-19T09:55:02.016Z,21.64
2022-08-19T09:57:35.044Z,21.63
2022-08-19T10:00:02.804Z,21.67
2022-08-19T10:02:30.555Z,21.69
2022-08-19T10:05:16.324Z,21.73
2022-08-19T10:07:51.156Z,21.77
2022-08-19T10:10:20.178Z,21.79
2022-08-19T10:12:48.820Z,21.81
2022-08-19T10:15:17.451Z,21.84
2022-08-19T10:17:56.743Z,21.83
2022-08-19T10:20:26.421Z,21.82
2022-08-19T10:22:54.032Z,21.83
2022-08-19T10:25:23.018Z,21.82
2022-08-19T10:27:51.376Z,21.81
2022-08-19T10:30:20.149Z,21.81
2022-08-19T10:32:47.933Z,21.81
2022-08-19T10:35:16.199Z,21.80
2022-08-19T10:37:55.979Z,21.78
2022-08-19T10:40:26.921Z,21.79
2022-08-19T10:42:54.642Z,21.78
2022-08-19T10:45:23.225Z,21.80
2022-08-19T10:47:51.695Z,21.80
2022-08-19T10:50:36.790Z,21.79
2022-08-19T10:53:08.046Z,21.76
2022-08-19T10:55:56.605Z,21.79
2022-08-19T10:58:24.477Z,21.78
2022-08-19T11:00:54.142Z,21.81
2022-08-19T11:03:22.215Z,21.82
2022-08-19T11:05:59.294Z,21.83
2022-08-19T11:08:27.738Z,21.83
2022-08-19T11:11:00.126Z,21.85
2022-08-19T11:13:27.824Z,21.83
2022-08-19T11:16:02.822Z,21.81
2022-08-19T11:18:35.021Z,21.81
2022-08-19T11:21:08.385Z,21.82
2022-08-19T11:23:36.101Z,21.82
2022-08-19T11:26:05.560Z,21.82
2022-08-19T11:28:33.694Z,21.82
2022-08-19T11:31:02.498Z,21.84
2022-08-19T11:33:30.153Z,21.84
2022-08-19T11:35:59.373Z,21.84
2022-08-19T11:38:27.114Z,21.83
2022-08-19T11:40:58.816Z,21.84
2022-08-19T11:43:28.076Z,21.82
2022-08-19T11:45:56.200Z,21.83
2022-08-19T11:48:23.924Z,21.82
2022-08-19T11:50:51.624Z,21.78
2022-08-19T11:53:19.299Z,21.82
2022-08-19T11:55:46.892Z,21.81
2022-08-19T11:58:19.023Z,21.80
2022-08-19T12:00:48.315Z,21.78
2022-08-19T12:03:15.955Z,21.80
2022-08-19T12:05:43.742Z,21.81
2022-08-19T12:08:13.534Z,21.80
2022-08-19T12:10:41.813Z,21.78
2022-08-19T12:13:09.528Z,21.78
2022-08-19T12:15:37.709Z,21.81
2022-08-19T12:18:06.991Z,21.81
2022-08-19T12:20:36.511Z,21.82
2022-08-19T12:23:04.336Z,21.82
2022-08-19T12:25:32.618Z,21.82
2022-08-19T12:28:00.829Z,21.83
2022-08-19T12:30:28.673Z,21.83
2022-08-19T12:32:56.342Z,21.83
2022-08-19T12:35:26.766Z,21.82
2022-08-19T12:37:57.003Z,21.82
2022-08-19T12:40:26.406Z,21.82
2022-08-19T12:42:54.348Z,21.82
2022-08-19T12:45:22.538Z,21.82
2022-08-19T12:47:50.519Z,21.82
2022-08-19T12:50:22.422Z,21.84
2022-08-19T12:52:51.466Z,21.82
2022-08-19T12:55:20.076Z,21.83
2022-08-19T12:57:49.444Z,21.83
2022-08-19T13:00:18.573Z,21.83
2022-08-19T13:02:47.538Z,21.84
2022-08-19T13:05:16.783Z,21.87
2022-08-19T13:07:44.710Z,21.87
2022-08-19T13:10:16.266Z,21.86
2022-08-19T13:12:43.949Z,21.86
2022-08-19T13:15:12.287Z,21.87
2022-08-19T13:17:40.176Z,21.87
2022-08-19T13:20:09.695Z,21.86
2022-08-19T13:22:37.580Z,21.87
2022-08-19T13:25:06.284Z,21.88
2022-08-19T13:27:35.277Z,21.89
2022-08-19T13:30:20.457Z,21.89
2022-08-19T13:33:05.759Z,21.90
2022-08-19T13:35:33.378Z,21.90
2022-08-19T13:38:01.736Z,21.91
2022-08-19T13:40:30.059Z,21.91
2022-08-19T13:42:59.098Z,21.90
2022-08-19T13:45:26.941Z,21.91
2022-08-19T13:47:59.251Z,21.90
2022-08-19T13:50:28.984Z,21.90
2022-08-19T13:52:57.240Z,21.91
2022-08-19T13:55:25.345Z,21.90
2022-08-19T13:57:53.816Z,21.90
2022-08-19T14:00:24.796Z,21.90
2022-08-19T14:02:53.314Z,21.90
2022-08-19T14:05:21.384Z,21.91
2022-08-19T14:07:49.294Z,21.91
2022-08-19T14:10:17.115Z,21.91
2022-08-19T14:12:44.745Z,21.92
2022-08-19T14:15:12.912Z,21.91
2022-08-19T14:17:42.045Z,21.92
2022-08-19T14:20:11.360Z,21.93
2022-08-19T14:22:45.656Z,21.93
2022-08-19T14:25:14.593Z,21.92
2022-08-19T14:27:42.676Z,21.93
2022-08-19T14:30:11.797Z,21.91
2022-08-19T14:32:39.474Z,21.92
2022-08-19T14:35:09.214Z,21.93
2022-08-19T14:37:40.087Z,21.92
2022-08-19T14:40:14.032Z,21.92
2022-08-19T14:42:41.928Z,21.92
2022-08-19T14:45:10.642Z,21.92
2022-08-19T14:47:39.697Z,21.93
2022-08-19T14:50:11.369Z,21.94
2022-08-19T14:52:46.157Z,21.92
2022-08-19T14:55:13.830Z,21.92
2022-08-19T14:57:42.455Z,21.93
2022-08-19T15:00:13.701Z,21.94
2022-08-19T15:02:41.417Z,21.94
2022-08-19T15:05:10.709Z,21.93
2022-08-19T15:07:38.578Z,21.91
2022-08-19T15:10:07.703Z,21.91
2022-08-19T15:12:35.941Z,21.91
2022-08-19T15:15:03.589Z,21.91
2022-08-19T15:17:44.994Z,21.93
2022-08-19T15:20:22.046Z,21.93
2022-08-19T15:22:49.830Z,21.91
2022-08-19T15:25:19.379Z,21.91
2022-08-19T15:27:47.009Z,21.93
2022-08-19T15:30:19.921Z,21.97
2022-08-19T15:32:49.187Z,22.03
2022-08-19T15:35:19.258Z,22.08
2022-08-19T15:37:50.149Z,22.13
2022-08-19T15:40:17.830Z,22.19
2022-08-19T15:42:45.448Z,22.24
2022-08-19T15:45:13.508Z,22.27
2022-08-19T15:47:41.265Z,22.31
2022-08-19T15:50:10.525Z,22.33
2022-08-19T15:52:44.990Z,22.32
2022-08-19T15:55:32.594Z,22.31
2022-08-19T15:58:24.163Z,22.32
2022-08-19T16:01:14.429Z,22.31
2022-08-19T16:03:59.757Z,22.30
2022-08-19T16:06:27.455Z,22.29
2022-08-19T16:08:55.129Z,22.29
2022-08-19T16:11:29.290Z,22.28
2022-08-19T16:13:57.793Z,22.30
2022-08-19T16:16:33.847Z,22.30
2022-08-19T16:19:02.902Z,22.30
2022-08-19T16:21:33.069Z,22.28
2022-08-19T16:24:01.179Z,22.26
2022-08-19T16:26:31.095Z,22.25
2022-08-19T16:28:59.632Z,22.24
2022-08-19T16:31:27.557Z,22.23
2022-08-19T16:33:55.186Z,22.25
2022-08-19T16:36:24.045Z,22.27
2022-08-19T16:38:52.034Z,22.30
2022-08-19T16:41:19.659Z,22.34
2022-08-19T16:43:49.237Z,22.37
2022-08-19T16:46:18.681Z,22.40
2022-08-19T16:48:46.378Z,22.44
2022-08-19T16:51:14.533Z,22.46
2022-08-19T16:53:42.730Z,22.49
2022-08-19T16:56:14.014Z,22.55
2022-08-19T16:58:42.585Z,22.58
2022-08-19T17:01:11.936Z,22.58
2022-08-19T17:03:39.900Z,22.59
2022-08-19T17:06:18.450Z,22.61
2022-08-19T17:08:49.303Z,22.65
2022-08-19T17:11:18.625Z,22.71
2022-08-19T17:13:47.961Z,22.74
2022-08-19T17:16:17.269Z,22.75
2022-08-19T17:18:45.269Z,22.74
2022-08-19T17:21:13.383Z,22.75
2022-08-19T17:23:42.886Z,22.78
2022-08-19T17:26:17.130Z,22.77
2022-08-19T17:28:47.188Z,22.76
2022-08-19T17:31:15.170Z,22.74
2022-08-19T17:33:48.714Z,22.74
2022-08-19T17:36:17.093Z,22.70
2022-08-19T17:38:44.700Z,22.72
2022-08-19T17:41:12.293Z,22.72
2022-08-19T17:43:43.549Z,22.73
2022-08-19T17:46:18.337Z,22.73
2022-08-19T17:48:52.062Z,22.71
2022-08-19T17:51:23.080Z,22.66
2022-08-19T17:53:52.362Z,22.65
2022-08-19T17:56:20.679Z,22.66
2022-08-19T17:58:57.825Z,22.65
2022-08-19T18:01:37.786Z,22.66
2022-08-19T18:04:18.740Z,22.65
2022-08-19T18:06:53.792Z,22.63
2022-08-19T18:09:23.878Z,22.61
2022-08-19T18:11:53.328Z,22.63
2022-08-19T18:14:28.145Z,22.65
2022-08-19T18:17:00.263Z,22.65
2022-08-19T18:19:30.152Z,22.65
2022-08-19T18:22:09.501Z,22.64
2022-08-19T18:24:38.760Z,22.64
2022-08-19T18:27:06.814Z,22.63
2022-08-19T18:29:38.584Z,22.61
2022-08-19T18:32:06.833Z,22.64
2022-08-19T18:34:38.061Z,22.66
2022-08-19T18:37:05.856Z,22.67
2022-08-19T18:39:51.180Z,22.74
2022-08-19T18:42:36.614Z,22.74
2022-08-19T18:45:21.953Z,22.74
2022-08-19T18:48:26.593Z,22.71
2022-08-19T18:50:57.306Z,22.75
2022-08-19T18:53:25.152Z,22.71
2022-08-19T18:55:55.245Z,22.67
2022-08-19T18:58:26.325Z,22.66
2022-08-19T19:00:55.785Z,22.61
2022-08-19T19:03:23.985Z,22.56
2022-08-19T19:05:52.160Z,22.53
2022-08-19T19:08:27.151Z,22.54
2022-08-19T19:10:55.801Z,22.52
2022-08-19T19:13:23.441Z,22.47
2022-08-19T19:15:51.531Z,22.45
2022-08-19T19:18:19.226Z,22.42
2022-08-19T19:20:47.018Z,22.39
2022-08-19T19:23:14.658Z,22.35
2022-08-19T19:25:50.307Z,22.34
2022-08-19T19:28:25.559Z,22.31
2022-08-19T19:30:54.143Z,22.27
2022-08-19T19:33:21.890Z,22.26
2022-08-19T19:35:49.498Z,22.23
2022-08-19T19:38:17.240Z,22.23
2022-08-19T19:40:46.801Z,22.22
2022-08-19T19:43:17.382Z,22.20
2022-08-19T19:45:45.057Z,22.17
2022-08-19T19:48:15.484Z,22.16
2022-08-19T19:50:43.433Z,22.15
2022-08-19T19:53:11.112Z,22.13
2022-08-19T19:55:41.203Z,22.13
2022-08-19T19:58:10.206Z,22.13
2022-08-19T20:00:37.851Z,22.11
2022-08-19T20:03:09.727Z,22.11
2022-08-19T20:05:37.380Z,22.11
2022-08-19T20:08:22.958Z,22.10
2022-08-19T20:10:50.947Z,22.08
2022-08-19T20:13:20.074Z,22.07
2022-08-19T20:15:47.764Z,22.07
2022-08-19T20:18:15.371Z,22.06
2022-08-19T20:20:43.596Z,22.03
2022-08-19T20:23:13.331Z,22.04
2022-08-19T20:25:41.076Z,22.02
2022-08-19T20:28:09.105Z,22.02
2022-08-19T20:30:43.777Z,22.02
2022-08-19T20:33:14.538Z,22.02
2022-08-19T20:35:43.349Z,22.01
2022-08-19T20:38:11.038Z,22.01
2022-08-19T20:40:39.225Z,21.99
2022-08-19T20:43:08.910Z,21.98
2022-08-19T20:45:38.200Z,21.97
2022-08-19T20:48:06.947Z,21.95
2022-08-19T20:50:35.825Z,21.95
2022-08-19T20:53:05.528Z,21.94
2022-08-19T20:55:33.576Z,21.94
2022-08-19T20:58:01.202Z,21.94
2022-08-19T21:00:30.706Z,21.92
2022-08-19T21:02:59.673Z,21.91
2022-08-19T21:05:30.553Z,21.90
2022-08-19T21:07:58.538Z,21.90
2022-08-19T21:10:26.233Z,21.91
2022-08-19T21:12:55.096Z,21.93
2022-08-19T21:15:24.575Z,21.90
2022-08-19T21:17:52.382Z,21.89
2022-08-19T21:20:21.490Z,21.89
2022-08-19T21:22:49.076Z,21.87
2022-08-19T21:25:16.987Z,21.87
2022-08-19T21:27:44.564Z,21.86
2022-08-19T21:30:13.678Z,21.84
2022-08-19T21:32:41.331Z,21.86
2022-08-19T21:35:09.358Z,21.85
2022-08-19T21:37:38.736Z,21.86
2022-08-19T21:40:07.370Z,21.84
2022-08-19T21:42:35.105Z,21.83
2022-08-19T21:45:03.167Z,21.83
2022-08-19T21:47:30.798Z,21.83
2022-08-19T21:49:58.419Z,21.83
2022-08-19T21:52:27.204Z,21.81
2022-08-19T21:54:56.290Z,21.80
2022-08-19T21:57:24.520Z,21.81
2022-08-19T21:59:52.556Z,21.79
2022-08-19T22:02:21.244Z,21.79
2022-08-19T22:04:49.470Z,21.78
2022-08-19T22:07:17.082Z,21.77
2022-08-19T22:09:45.155Z,21.77
2022-08-19T22:12:23.306Z,21.78
2022-08-19T22:14:51.612Z,21.77
2022-08-19T22:17:19.362Z,21.77
2022-08-19T22:19:47.039Z,21.77
2022-08-19T22:22:14.633Z,21.77
2022-08-19T22:24:42.207Z,21.76
2022-08-19T22:27:09.873Z,21.76
2022-08-19T22:29:38.825Z,21.75
2022-08-19T22:32:26.658Z,21.74
2022-08-19T22:34:56.610Z,21.75
2022-08-19T22:37:24.213Z,21.75
2022-08-19T22:39:51.877Z,21.74
2022-08-19T22:42:20.393Z,21.74
2022-08-19T22:44:49.753Z,21.72
2022-08-19T22:47:17.413Z,21.74
2022-08-19T22:49:45.222Z,21.72
2022-08-19T22:52:17.193Z,21.72
2022-08-19T22:54:46.121Z,21.72
2022-08-19T22:57:13.777Z,21.72
2022-08-19T22:59:41.467Z,21.72
2022-08-19T23:02:10.553Z,21.72
2022-08-19T23:04:38.254Z,21.72
2022-08-19T23:07:06.213Z,21.71
2022-08-19T23:09:33.884Z,21.69
2022-08-19T23:12:04.933Z,21.69
2022-08-19T23:14:32.588Z,21.71
2022-08-19T23:17:01.396Z,21.69
2022-08-19T23:19:30.645Z,21.69
2022-08-19T23:21:58.352Z,21.68
2022-08-19T23:24:25.961Z,21.68
2022-08-19T23:27:11.283Z,21.68
2022-08-19T23:29:56.510Z,21.67
2022-08-19T23:32:25.433Z,21.67
2022-08-19T23:34:56.081Z,21.68
2022-08-19T23:37:25.439Z,21.67
2022-08-19T23:39:53.424Z,21.67
2022-08-19T23:42:21.330Z,21.67
2022-08-19T23:44:51.560Z,21.67
2022-08-19T23:47:20.268Z,21.67
2022-08-19T23:49:48.514Z,21.68
2022-08-19T23:52:17.561Z,21.65
2022-08-19T23:54:45.233Z,21.64
2022-08-19T23:57:13.949Z,21.64
2022-08-19T23:59:44.974Z,21.64
